VPCOH UGTB-UTAA
Flight info
| Callsign | VPCOH |
|---|---|
| Flight time | N/A |
| Altitude | 39000 |
| Route | DISKA M737 VERCA M747 SULEL N449 DUKAN B449 MAMED MAM11A |
| Aircraft | B738/M-SDE2E3FGHIRWXY/LB1 |
Departure
| Time | 2026-05-05 14:25 |
|---|---|
| Airport | Tbilisi International Airport (UGTB) |
Arrival
| Time | N/A |
|---|---|
| Airport | Ashgabat International Airport (UTAA) |
| Time | Latitude | Longitude | Altitude | Speed | Heading |
|---|---|---|---|---|---|
| 2026-05-05 14:12 | 41.67089 | 44.96054 | 1526 ft | 0 kts | 43° |
| 2026-05-05 14:13 | 41.67087 | 44.96051 | 1526 ft | 2 kts | 43° |
| 2026-05-05 14:13 | 41.67079 | 44.96041 | 1520 ft | 2 kts | 43° |
| 2026-05-05 14:14 | 41.67071 | 44.96031 | 1521 ft | 2 kts | 43° |
| 2026-05-05 14:14 | 41.67064 | 44.96021 | 1522 ft | 2 kts | 43° |
| 2026-05-05 14:14 | 41.67056 | 44.96012 | 1524 ft | 2 kts | 43° |
| 2026-05-05 14:14 | 41.67048 | 44.96002 | 1518 ft | 2 kts | 43° |
| 2026-05-05 14:15 | 41.67040 | 44.95992 | 1518 ft | 2 kts | 43° |
| 2026-05-05 14:15 | 41.67033 | 44.95982 | 1518 ft | 2 kts | 43° |
| 2026-05-05 14:15 | 41.67025 | 44.95973 | 1518 ft | 2 kts | 43° |
| 2026-05-05 14:15 | 41.67022 | 44.95971 | 1518 ft | 1 kts | 57° |
| 2026-05-05 14:16 | 41.67021 | 44.95981 | 1518 ft | 1 kts | 101° |
| 2026-05-05 14:16 | 41.67017 | 44.95991 | 1522 ft | 1 kts | 118° |
| 2026-05-05 14:16 | 41.67013 | 44.96002 | 1519 ft | 1 kts | 118° |
| 2026-05-05 14:16 | 41.67008 | 44.96013 | 1525 ft | 1 kts | 121° |
| 2026-05-05 14:17 | 41.67005 | 44.96018 | 1524 ft | 0 kts | 131° |
| 2026-05-05 14:18 | 41.66995 | 44.96032 | 1523 ft | 6 kts | 131° |
| 2026-05-05 14:18 | 41.66963 | 44.96080 | 1523 ft | 7 kts | 133° |
| 2026-05-05 14:19 | 41.66929 | 44.96129 | 1523 ft | 7 kts | 133° |
| 2026-05-05 14:19 | 41.66898 | 44.96180 | 1521 ft | 7 kts | 125° |
| 2026-05-05 14:19 | 41.66856 | 44.96242 | 1519 ft | 10 kts | 133° |
| 2026-05-05 14:19 | 41.66807 | 44.96312 | 1523 ft | 10 kts | 133° |
| 2026-05-05 14:20 | 41.66759 | 44.96379 | 1520 ft | 10 kts | 134° |
| 2026-05-05 14:20 | 41.66703 | 44.96429 | 1523 ft | 10 kts | 164° |
| 2026-05-05 14:20 | 41.66639 | 44.96415 | 1520 ft | 9 kts | 194° |
| 2026-05-05 14:20 | 41.66576 | 44.96395 | 1523 ft | 9 kts | 192° |
| 2026-05-05 14:21 | 41.66515 | 44.96377 | 1524 ft | 9 kts | 194° |
| 2026-05-05 14:21 | 41.66456 | 44.96358 | 1526 ft | 9 kts | 194° |
| 2026-05-05 14:21 | 41.66399 | 44.96339 | 1519 ft | 8 kts | 194° |
| 2026-05-05 14:21 | 41.66343 | 44.96320 | 1519 ft | 8 kts | 194° |
| 2026-05-05 14:22 | 41.66289 | 44.96303 | 1521 ft | 8 kts | 191° |
| 2026-05-05 14:22 | 41.66232 | 44.96300 | 1522 ft | 9 kts | 175° |
| 2026-05-05 14:22 | 41.66156 | 44.96333 | 1523 ft | 13 kts | 150° |
| 2026-05-05 14:22 | 41.66083 | 44.96414 | 1523 ft | 13 kts | 137° |
| 2026-05-05 14:23 | 41.66017 | 44.96499 | 1525 ft | 13 kts | 135° |
| 2026-05-05 14:23 | 41.65953 | 44.96578 | 1525 ft | 13 kts | 142° |
| 2026-05-05 14:23 | 41.65871 | 44.96593 | 1521 ft | 12 kts | 205° |
| 2026-05-05 14:23 | 41.65844 | 44.96487 | 1524 ft | 13 kts | 279° |
| 2026-05-05 14:24 | 41.65897 | 44.96389 | 1519 ft | 16 kts | 315° |
| 2026-05-05 14:24 | 41.66152 | 44.96073 | 1525 ft | 90 kts | 318° |
| 2026-05-05 14:24 | 41.66795 | 44.95267 | 1519 ft | 159 kts | 319° |
| 2026-05-05 14:24 | 41.67660 | 44.94123 | 2048 ft | 179 kts | 318° |
| 2026-05-05 14:25 | 41.68543 | 44.92989 | 3069 ft | 177 kts | 316° |
| 2026-05-05 14:25 | 41.69488 | 44.91808 | 3723 ft | 200 kts | 318° |
| 2026-05-05 14:25 | 41.70598 | 44.90454 | 3992 ft | 231 kts | 317° |
| 2026-05-05 14:25 | 41.71836 | 44.88927 | 4465 ft | 249 kts | 317° |
| 2026-05-05 14:26 | 41.73169 | 44.87268 | 4995 ft | 270 kts | 317° |
| 2026-05-05 14:26 | 41.74546 | 44.85545 | 5884 ft | 276 kts | 317° |
| 2026-05-05 14:26 | 41.75931 | 44.83810 | 6835 ft | 278 kts | 319° |
| 2026-05-05 14:26 | 41.77642 | 44.82631 | 7774 ft | 283 kts | 350° |
| 2026-05-05 14:27 | 41.79593 | 44.82869 | 8705 ft | 288 kts | 20° |
| 2026-05-05 14:27 | 41.81296 | 44.84305 | 9612 ft | 293 kts | 45° |
| 2026-05-05 14:27 | 41.82450 | 44.86583 | 10407 ft | 300 kts | 68° |
| 2026-05-05 14:27 | 41.82898 | 44.89376 | 10673 ft | 325 kts | 90° |
| 2026-05-05 14:28 | 41.82541 | 44.92465 | 10953 ft | 345 kts | 111° |
| 2026-05-05 14:28 | 41.81277 | 44.95198 | 11623 ft | 350 kts | 137° |
| 2026-05-05 14:28 | 41.79214 | 44.96883 | 12548 ft | 348 kts | 162° |
| 2026-05-05 14:28 | 41.76881 | 44.97732 | 13521 ft | 349 kts | 169° |
| 2026-05-05 14:29 | 41.74481 | 44.98420 | 14346 ft | 354 kts | 169° |
| 2026-05-05 14:29 | 41.72060 | 44.99163 | 15168 ft | 358 kts | 167° |
| 2026-05-05 14:29 | 41.69634 | 45.00006 | 16009 ft | 362 kts | 166° |
| 2026-05-05 14:29 | 41.67219 | 45.00924 | 16831 ft | 367 kts | 165° |
| 2026-05-05 14:30 | 41.64753 | 45.01898 | 17660 ft | 371 kts | 165° |
| 2026-05-05 14:30 | 41.62270 | 45.02906 | 18428 ft | 376 kts | 161° |
| 2026-05-05 14:30 | 41.59955 | 45.04601 | 19112 ft | 384 kts | 143° |
| 2026-05-05 14:30 | 41.58116 | 45.07218 | 19826 ft | 390 kts | 128° |
| 2026-05-05 14:31 | 41.56524 | 45.10181 | 20524 ft | 394 kts | 127° |
| 2026-05-05 14:31 | 41.54949 | 45.13211 | 21172 ft | 399 kts | 127° |
| 2026-05-05 14:31 | 41.53372 | 45.16235 | 21797 ft | 404 kts | 127° |
| 2026-05-05 14:31 | 41.51744 | 45.19318 | 22452 ft | 408 kts | 128° |
| 2026-05-05 14:32 | 41.50091 | 45.22410 | 23087 ft | 411 kts | 128° |
| 2026-05-05 14:32 | 41.48410 | 45.25531 | 23660 ft | 416 kts | 129° |
| 2026-05-05 14:32 | 41.46714 | 45.28671 | 24161 ft | 419 kts | 129° |
| 2026-05-05 14:32 | 41.44894 | 45.31721 | 24674 ft | 419 kts | 135° |
| 2026-05-05 14:33 | 41.42937 | 45.34557 | 25198 ft | 421 kts | 137° |
| 2026-05-05 14:33 | 41.40896 | 45.37372 | 25703 ft | 423 kts | 139° |
| 2026-05-05 14:33 | 41.38839 | 45.40198 | 26204 ft | 426 kts | 139° |
| 2026-05-05 14:33 | 41.36777 | 45.43066 | 26700 ft | 429 kts | 139° |
| 2026-05-05 14:34 | 41.34717 | 45.45968 | 27179 ft | 432 kts | 139° |
| 2026-05-05 14:34 | 41.32649 | 45.48906 | 27656 ft | 434 kts | 139° |
| 2026-05-05 14:34 | 41.30604 | 45.51822 | 28117 ft | 436 kts | 139° |
| 2026-05-05 14:34 | 41.28526 | 45.54788 | 28589 ft | 438 kts | 140° |
| 2026-05-05 14:35 | 41.26442 | 45.57756 | 29042 ft | 440 kts | 140° |
| 2026-05-05 14:35 | 41.24342 | 45.60740 | 29467 ft | 442 kts | 141° |
| 2026-05-05 14:35 | 41.22339 | 45.63898 | 29890 ft | 452 kts | 133° |
| 2026-05-05 14:35 | 41.20680 | 45.67435 | 30249 ft | 462 kts | 126° |
| 2026-05-05 14:36 | 41.19389 | 45.71398 | 30550 ft | 474 kts | 118° |